createdAt,value
2023-03-29T00:00:12.631Z,79.66
2023-03-29T00:02:17.167Z,79.03
2023-03-29T00:04:20.263Z,79.63
2023-03-29T00:06:24.913Z,79.47
2023-03-29T00:08:27.872Z,79.52
2023-03-29T00:10:32.654Z,79.69
2023-03-29T00:12:36.197Z,79.53
2023-03-29T00:14:39.077Z,80.45
2023-03-29T00:16:42.485Z,81.10
2023-03-29T00:18:45.794Z,79.98
2023-03-29T00:20:55.829Z,80.29
2023-03-29T00:23:00.151Z,80.95
2023-03-29T00:25:03.280Z,80.02
2023-03-29T00:27:06.195Z,79.97
2023-03-29T00:29:09.402Z,81.32
2023-03-29T00:31:14.242Z,81.04
2023-03-29T00:33:20.808Z,81.70
2023-03-29T00:35:23.770Z,80.88
2023-03-29T00:37:27.235Z,82.17
2023-03-29T00:39:32.836Z,82.27
2023-03-29T00:41:36.793Z,82.70
2023-03-29T00:43:57.586Z,81.92
2023-03-29T00:46:00.974Z,81.75
2023-03-29T00:48:07.574Z,81.51
2023-03-29T00:50:16.754Z,81.98
2023-03-29T00:52:22.994Z,81.27
2023-03-29T00:54:28.433Z,81.59
2023-03-29T00:56:37.385Z,81.68
2023-03-29T00:58:48.184Z,82.56
2023-03-29T01:00:58.197Z,82.81
2023-03-29T01:03:07.426Z,82.18
2023-03-29T01:05:15.877Z,82.53
2023-03-29T01:07:22.637Z,82.71
2023-03-29T01:09:30.664Z,82.79
2023-03-29T01:11:41.356Z,82.10
2023-03-29T01:13:50.753Z,83.22
2023-03-29T01:15:56.845Z,82.99
2023-03-29T01:18:02.224Z,83.57
2023-03-29T01:20:14.616Z,81.60
2023-03-29T01:22:32.437Z,82.68
2023-03-29T01:24:53.542Z,83.68
2023-03-29T01:27:03.796Z,82.92
2023-03-29T01:29:12.075Z,81.68
2023-03-29T01:31:22.290Z,82.75
2023-03-29T01:33:29.597Z,82.75
2023-03-29T01:35:38.787Z,82.35
2023-03-29T01:37:48.212Z,82.97
2023-03-29T01:39:52.367Z,83.08
2023-03-29T01:42:10.481Z,84.54
2023-03-29T01:44:20.836Z,83.13
2023-03-29T01:46:31.103Z,83.55
2023-03-29T01:48:45.241Z,83.65
2023-03-29T01:50:51.316Z,84.79
2023-03-29T01:53:00.036Z,85.82
2023-03-29T01:55:08.635Z,84.83
2023-03-29T01:57:12.518Z,84.44
2023-03-29T01:59:22.992Z,84.20
2023-03-29T02:01:30.362Z,85.38
2023-03-29T02:03:42.709Z,84.84
2023-03-29T02:05:46.495Z,84.95
2023-03-29T02:07:50.860Z,84.37
2023-03-29T02:09:54.896Z,84.01
2023-03-29T02:12:01.475Z,83.64
2023-03-29T02:14:08.394Z,84.28
2023-03-29T02:16:14.163Z,84.69
2023-03-29T02:18:19.044Z,83.59
2023-03-29T02:20:26.998Z,84.86
2023-03-29T02:22:37.074Z,85.08
2023-03-29T02:24:42.793Z,85.67
2023-03-29T02:26:46.395Z,86.63
2023-03-29T02:28:49.894Z,86.97
2023-03-29T02:30:57.557Z,88.29
2023-03-29T02:33:08.960Z,87.03
2023-03-29T02:35:18.514Z,85.35
2023-03-29T02:37:24.720Z,85.96
2023-03-29T02:39:29.993Z,85.37
2023-03-29T02:41:37.388Z,85.13
2023-03-29T02:43:42.838Z,84.98
2023-03-29T02:45:47.557Z,85.25
2023-03-29T02:47:54.898Z,85.12
2023-03-29T02:50:01.717Z,85.13
2023-03-29T02:52:09.577Z,84.47
2023-03-29T02:54:15.941Z,84.30
2023-03-29T02:56:19.843Z,84.91
2023-03-29T02:58:26.842Z,85.83
2023-03-29T03:00:30.200Z,85.00
2023-03-29T03:02:33.922Z,84.91
2023-03-29T03:04:37.000Z,85.64
2023-03-29T03:06:41.769Z,85.72
2023-03-29T03:08:46.518Z,85.88
2023-03-29T03:10:49.996Z,85.11
2023-03-29T03:12:54.878Z,86.08
2023-03-29T03:14:58.080Z,86.34
2023-03-29T03:17:03.893Z,87.72
2023-03-29T03:19:08.240Z,88.19
2023-03-29T03:21:11.918Z,87.96
2023-03-29T03:23:16.387Z,86.88
2023-03-29T03:25:21.474Z,86.56
2023-03-29T03:27:25.593Z,87.79
2023-03-29T03:29:28.752Z,87.69
2023-03-29T03:31:34.614Z,86.64
2023-03-29T03:33:50.312Z,86.43
2023-03-29T03:36:12.596Z,87.91
2023-03-29T03:38:20.014Z,88.48
2023-03-29T03:40:30.340Z,88.24
2023-03-29T03:42:33.339Z,88.16
2023-03-29T03:44:38.292Z,88.50
2023-03-29T03:47:02.681Z,88.48
2023-03-29T03:49:06.077Z,88.03
2023-03-29T03:51:14.358Z,88.11
2023-03-29T03:53:17.356Z,86.93
2023-03-29T03:55:40.061Z,86.76
2023-03-29T03:57:48.272Z,86.56
2023-03-29T03:59:54.671Z,85.77
2023-03-29T04:02:16.661Z,84.47
2023-03-29T04:04:21.006Z,84.51
2023-03-29T04:06:53.239Z,84.16
2023-03-29T04:09:18.503Z,84.75
2023-03-29T04:11:29.831Z,84.09
2023-03-29T04:13:32.801Z,83.51
2023-03-29T04:16:05.580Z,83.90
2023-03-29T04:18:08.928Z,83.36
2023-03-29T04:20:19.205Z,84.09
2023-03-29T04:22:22.282Z,84.29
2023-03-29T04:24:25.670Z,84.00
2023-03-29T04:26:50.113Z,84.94
2023-03-29T04:28:57.997Z,85.66
2023-03-29T04:31:17.214Z,85.80
2023-03-29T04:33:40.535Z,85.47
2023-03-29T04:35:44.353Z,86.95
2023-03-29T04:37:51.878Z,85.89
2023-03-29T04:39:57.564Z,86.09
2023-03-29T04:42:03.347Z,86.04
2023-03-29T04:44:08.724Z,85.17
2023-03-29T04:46:11.902Z,84.44
2023-03-29T04:48:43.038Z,84.79
2023-03-29T04:50:47.676Z,84.70
2023-03-29T04:52:53.280Z,84.86
2023-03-29T04:54:56.997Z,83.44
2023-03-29T04:57:03.545Z,84.18
2023-03-29T04:59:29.502Z,83.39
2023-03-29T05:01:33.148Z,83.05
2023-03-29T05:03:36.838Z,84.11
2023-03-29T05:05:48.756Z,84.01
2023-03-29T05:07:51.835Z,83.88
2023-03-29T05:10:00.127Z,84.59
2023-03-29T05:12:05.639Z,84.40
2023-03-29T05:14:21.956Z,84.56
2023-03-29T05:16:26.807Z,84.88
2023-03-29T05:18:33.676Z,85.18
2023-03-29T05:20:37.928Z,83.94
2023-03-29T05:22:41.315Z,84.64
2023-03-29T05:24:47.277Z,85.04
2023-03-29T05:26:53.244Z,84.86
2023-03-29T05:28:58.246Z,83.98
2023-03-29T05:31:02.914Z,83.65
2023-03-29T05:33:06.868Z,83.91
2023-03-29T05:35:11.727Z,81.17
2023-03-29T05:37:15.121Z,78.70
2023-03-29T05:39:26.237Z,76.90
2023-03-29T05:41:29.793Z,73.58
2023-03-29T05:44:01.954Z,70.29
2023-03-29T05:46:07.660Z,67.07
2023-03-29T05:48:12.742Z,67.71
2023-03-29T05:50:19.113Z,66.25
2023-03-29T05:52:22.122Z,63.00
2023-03-29T05:54:25.352Z,64.09
2023-03-29T05:56:28.944Z,64.37
2023-03-29T05:58:32.049Z,63.73
2023-03-29T06:00:38.204Z,64.66
2023-03-29T06:03:06.487Z,64.14
2023-03-29T06:05:14.268Z,61.82
2023-03-29T06:07:32.359Z,62.21
2023-03-29T06:09:55.960Z,60.90
2023-03-29T06:11:59.796Z,59.40
2023-03-29T06:14:16.401Z,59.33
2023-03-29T06:16:27.566Z,56.36
2023-03-29T06:18:30.588Z,54.20
2023-03-29T06:20:33.760Z,50.03
2023-03-29T06:22:42.845Z,48.08
2023-03-29T06:24:48.241Z,44.73
2023-03-29T06:27:00.310Z,42.68
2023-03-29T06:29:04.887Z,39.91
2023-03-29T06:31:10.535Z,39.37
2023-03-29T06:33:17.396Z,39.48
2023-03-29T06:35:48.964Z,36.98
2023-03-29T06:37:56.440Z,35.48
2023-03-29T06:40:27.664Z,37.93
2023-03-29T06:42:30.827Z,35.36
2023-03-29T06:44:52.040Z,34.60
2023-03-29T06:46:55.830Z,36.62
2023-03-29T06:49:01.731Z,34.48
2023-03-29T06:51:24.078Z,33.05
2023-03-29T06:53:28.418Z,33.82
2023-03-29T06:55:36.667Z,36.66
2023-03-29T06:58:03.019Z,37.71
2023-03-29T07:00:28.404Z,34.63
2023-03-29T07:02:52.597Z,36.65
2023-03-29T07:04:57.117Z,39.69
2023-03-29T07:07:07.978Z,38.46
2023-03-29T07:09:13.279Z,36.74
2023-03-29T07:11:39.564Z,38.34
2023-03-29T07:13:55.915Z,39.38
2023-03-29T07:15:59.558Z,39.39
2023-03-29T07:18:28.670Z,37.22
2023-03-29T07:20:34.154Z,35.45
2023-03-29T07:22:45.096Z,42.27
2023-03-29T07:24:49.616Z,38.99
2023-03-29T07:27:03.445Z,40.91
2023-03-29T07:29:08.076Z,37.94
2023-03-29T07:31:13.682Z,36.83
2023-03-29T07:33:23.548Z,37.43
2023-03-29T07:35:33.995Z,36.15
2023-03-29T07:37:37.884Z,36.76
2023-03-29T07:39:43.448Z,36.81
2023-03-29T07:42:12.393Z,40.14
2023-03-29T07:44:15.442Z,40.53
2023-03-29T07:46:20.105Z,41.16
2023-03-29T07:48:23.512Z,41.84
2023-03-29T07:50:36.232Z,38.21
2023-03-29T07:52:40.543Z,39.40
2023-03-29T07:54:43.784Z,37.89
2023-03-29T07:56:59.126Z,40.52
2023-03-29T07:59:13.811Z,38.89
2023-03-29T08:01:20.072Z,37.51
2023-03-29T08:03:52.554Z,39.02
2023-03-29T08:06:02.762Z,36.38
2023-03-29T08:08:06.996Z,34.62
2023-03-29T08:10:23.036Z,34.90
2023-03-29T08:12:55.391Z,36.52
2023-03-29T08:15:09.556Z,31.95
2023-03-29T08:17:13.321Z,34.84
2023-03-29T08:19:22.238Z,38.12
2023-03-29T08:21:38.197Z,37.91
2023-03-29T08:23:41.490Z,37.62
2023-03-29T08:25:55.258Z,35.04
2023-03-29T08:27:58.355Z,33.89
2023-03-29T08:30:18.500Z,36.98
2023-03-29T08:32:21.878Z,37.66
2023-03-29T08:34:25.159Z,35.89
2023-03-29T08:36:48.679Z,39.17
2023-03-29T08:39:03.846Z,40.83
2023-03-29T08:41:21.720Z,40.37
2023-03-29T08:44:00.316Z,40.19
2023-03-29T08:46:21.670Z,37.92
2023-03-29T08:48:29.139Z,35.35
2023-03-29T08:50:37.316Z,39.22
2023-03-29T08:52:46.564Z,34.41
2023-03-29T08:55:31.960Z,36.02
2023-03-29T08:57:55.275Z,35.38
2023-03-29T09:00:13.723Z,36.75
2023-03-29T09:02:22.700Z,36.86
2023-03-29T09:04:32.007Z,37.62
2023-03-29T09:06:55.602Z,38.36
2023-03-29T09:09:04.156Z,33.28
2023-03-29T09:11:41.217Z,34.07
2023-03-29T09:13:55.435Z,34.42
2023-03-29T09:16:07.181Z,34.23
2023-03-29T09:18:24.285Z,35.87
2023-03-29T09:20:42.994Z,32.30
2023-03-29T09:22:55.433Z,33.13
2023-03-29T09:25:13.698Z,31.50
2023-03-29T09:27:24.760Z,36.41
2023-03-29T09:29:55.473Z,37.78
2023-03-29T09:32:20.792Z,32.29
2023-03-29T09:34:33.353Z,29.71
2023-03-29T09:36:48.853Z,31.37
2023-03-29T09:38:54.961Z,34.97
2023-03-29T09:41:07.472Z,34.39
2023-03-29T09:43:14.229Z,30.86
2023-03-29T09:45:18.315Z,33.21
2023-03-29T09:47:28.471Z,30.09
2023-03-29T09:49:43.035Z,26.64
2023-03-29T09:51:49.629Z,30.58
2023-03-29T09:53:56.671Z,28.92
2023-03-29T09:56:16.341Z,29.42
2023-03-29T09:58:27.879Z,29.22
2023-03-29T10:00:31.295Z,29.05
2023-03-29T10:02:34.352Z,30.70
2023-03-29T10:04:38.867Z,30.05
2023-03-29T10:06:49.526Z,32.52
2023-03-29T10:08:59.286Z,31.39
2023-03-29T10:11:23.696Z,33.53
2023-03-29T10:13:29.754Z,33.91
2023-03-29T10:15:33.180Z,32.00
2023-03-29T10:17:40.920Z,36.33
2023-03-29T10:19:50.267Z,35.82
2023-03-29T10:21:54.276Z,34.66
2023-03-29T10:24:00.042Z,35.13
2023-03-29T10:26:04.647Z,35.78
2023-03-29T10:28:13.596Z,37.32
2023-03-29T10:30:24.565Z,36.52
2023-03-29T10:32:32.867Z,36.47
2023-03-29T10:34:35.875Z,40.14
2023-03-29T10:36:42.519Z,38.44
2023-03-29T10:38:45.777Z,36.88
2023-03-29T10:40:50.324Z,39.49
2023-03-29T10:42:57.958Z,36.93
2023-03-29T10:45:02.495Z,38.00
2023-03-29T10:47:15.264Z,38.57
2023-03-29T10:49:19.995Z,36.94
2023-03-29T10:51:25.038Z,36.19
2023-03-29T10:53:29.980Z,36.94
2023-03-29T10:55:42.196Z,37.76
2023-03-29T10:57:58.235Z,39.51
2023-03-29T11:00:08.743Z,38.51
2023-03-29T11:02:48.263Z,38.97
2023-03-29T11:04:58.821Z,39.17
2023-03-29T11:07:23.034Z,38.11
2023-03-29T11:09:40.139Z,37.78
2023-03-29T11:12:15.191Z,40.09
2023-03-29T11:14:30.796Z,36.97
2023-03-29T11:16:42.393Z,37.11
2023-03-29T11:19:14.843Z,37.45
2023-03-29T11:21:27.607Z,37.50
2023-03-29T11:23:41.944Z,38.42
2023-03-29T11:25:53.792Z,37.09
2023-03-29T11:28:05.515Z,39.15
2023-03-29T11:30:13.670Z,36.63
2023-03-29T11:32:26.376Z,38.66
2023-03-29T11:34:35.454Z,36.41
2023-03-29T11:36:50.843Z,38.50
2023-03-29T11:39:04.916Z,38.06
2023-03-29T11:41:16.221Z,37.43
2023-03-29T11:43:23.193Z,36.18
2023-03-29T11:45:32.834Z,36.50
2023-03-29T11:47:40.853Z,38.64
2023-03-29T11:49:49.598Z,38.26
2023-03-29T11:51:55.996Z,38.42
2023-03-29T11:54:04.874Z,36.63
2023-03-29T11:56:12.442Z,37.83
2023-03-29T11:58:20.868Z,38.70
2023-03-29T12:00:27.912Z,38.21
2023-03-29T12:02:37.054Z,39.50
2023-03-29T12:04:47.661Z,36.77
2023-03-29T12:06:57.473Z,35.89
2023-03-29T12:09:04.289Z,36.53
2023-03-29T12:11:13.960Z,38.49
2023-03-29T12:13:22.956Z,34.70
2023-03-29T12:15:29.972Z,34.86
2023-03-29T12:17:38.520Z,34.92
2023-03-29T12:19:49.312Z,34.83
2023-03-29T12:21:56.495Z,35.69
2023-03-29T12:24:00.842Z,36.50
2023-03-29T12:26:17.421Z,34.74
2023-03-29T12:28:37.075Z,34.39
2023-03-29T12:30:52.844Z,37.14
2023-03-29T12:33:18.634Z,35.53
2023-03-29T12:35:42.609Z,34.52
2023-03-29T12:38:17.163Z,35.65
2023-03-29T12:40:42.635Z,33.01
2023-03-29T12:43:07.851Z,34.26
2023-03-29T12:45:39.565Z,35.12
2023-03-29T12:47:45.901Z,34.66
2023-03-29T12:49:53.798Z,34.71
2023-03-29T12:52:02.061Z,34.53
2023-03-29T12:54:10.587Z,32.48
2023-03-29T12:56:17.160Z,34.02
2023-03-29T12:58:37.751Z,34.12
2023-03-29T13:00:45.967Z,32.70
2023-03-29T13:03:01.164Z,33.93
2023-03-29T13:05:05.833Z,37.10
2023-03-29T13:07:15.647Z,35.60
2023-03-29T13:09:23.857Z,34.41
2023-03-29T13:11:29.577Z,35.86
2023-03-29T13:13:37.026Z,34.25
2023-03-29T13:15:43.417Z,35.48
2023-03-29T13:17:56.918Z,34.95
2023-03-29T13:20:21.411Z,36.21
2023-03-29T13:22:37.447Z,36.30
2023-03-29T13:24:54.578Z,36.10
2023-03-29T13:27:07.468Z,34.52
2023-03-29T13:29:29.396Z,35.91
2023-03-29T13:31:41.864Z,38.87
2023-03-29T13:33:55.856Z,34.41
2023-03-29T13:36:06.180Z,34.72
2023-03-29T13:38:19.892Z,34.36
2023-03-29T13:40:32.361Z,35.19
2023-03-29T13:42:42.192Z,36.24
2023-03-29T13:44:49.200Z,34.90
2023-03-29T13:47:03.914Z,34.39
2023-03-29T13:49:14.930Z,34.47
2023-03-29T13:51:28.300Z,35.56
2023-03-29T13:53:37.731Z,35.57
2023-03-29T13:55:47.645Z,34.06
2023-03-29T13:57:55.972Z,32.80
2023-03-29T14:00:02.883Z,33.85
2023-03-29T14:02:22.302Z,37.11
2023-03-29T14:04:30.647Z,34.31
2023-03-29T14:06:36.956Z,35.47
2023-03-29T14:08:42.328Z,35.14
2023-03-29T14:10:46.614Z,34.59
2023-03-29T14:12:50.406Z,36.45
2023-03-29T14:14:59.782Z,34.21
2023-03-29T14:17:03.147Z,35.85
2023-03-29T14:19:13.766Z,36.85
2023-03-29T14:21:18.588Z,35.27
2023-03-29T14:23:24.206Z,35.28
2023-03-29T14:25:30.157Z,35.00
2023-03-29T14:27:37.434Z,37.19
2023-03-29T14:29:40.695Z,35.30
2023-03-29T14:31:43.740Z,36.26
2023-03-29T14:33:47.280Z,36.67
2023-03-29T14:35:51.543Z,36.45
2023-03-29T14:37:54.557Z,35.28
2023-03-29T14:39:59.800Z,34.89
2023-03-29T14:42:11.114Z,34.93
2023-03-29T14:44:14.994Z,34.59
2023-03-29T14:46:21.981Z,32.48
2023-03-29T14:48:26.753Z,33.94
2023-03-29T14:50:31.725Z,33.94
2023-03-29T14:52:35.527Z,35.36
2023-03-29T14:54:40.541Z,33.70
2023-03-29T14:56:43.694Z,35.29
2023-03-29T14:58:48.455Z,36.35
2023-03-29T15:00:53.146Z,36.75
2023-03-29T15:02:59.014Z,36.67
2023-03-29T15:05:03.810Z,35.95
2023-03-29T15:07:07.117Z,36.64
2023-03-29T15:09:17.270Z,36.29
2023-03-29T15:11:23.574Z,36.59
2023-03-29T15:13:27.913Z,35.52
2023-03-29T15:15:35.012Z,37.05
2023-03-29T15:17:51.146Z,37.02
2023-03-29T15:19:59.653Z,35.30
2023-03-29T15:22:10.444Z,35.94
2023-03-29T15:24:22.996Z,39.10
2023-03-29T15:26:29.615Z,36.59
2023-03-29T15:28:35.127Z,37.50
2023-03-29T15:30:47.766Z,36.42
2023-03-29T15:32:57.506Z,37.26
2023-03-29T15:35:01.690Z,36.30
2023-03-29T15:37:05.389Z,36.51
2023-03-29T15:39:12.776Z,39.76
2023-03-29T15:41:16.469Z,37.61
2023-03-29T15:43:21.926Z,37.93
2023-03-29T15:45:26.152Z,37.21
2023-03-29T15:47:31.135Z,39.10
2023-03-29T15:49:34.073Z,37.00
2023-03-29T15:51:37.078Z,38.16
2023-03-29T15:53:40.399Z,39.05
2023-03-29T15:55:46.420Z,40.08
2023-03-29T15:57:49.851Z,38.72
2023-03-29T15:59:52.875Z,37.84
2023-03-29T16:01:57.942Z,39.61
2023-03-29T16:04:02.963Z,38.52
2023-03-29T16:06:07.681Z,39.62
2023-03-29T16:08:11.937Z,39.45
2023-03-29T16:10:14.886Z,38.91
2023-03-29T16:12:17.876Z,39.52
2023-03-29T16:14:23.465Z,40.16
2023-03-29T16:16:26.713Z,40.23
2023-03-29T16:18:29.965Z,41.87
2023-03-29T16:20:34.414Z,42.42
2023-03-29T16:22:37.446Z,39.74
2023-03-29T16:24:40.460Z,41.74
2023-03-29T16:26:43.934Z,42.62
2023-03-29T16:28:46.976Z,40.88
2023-03-29T16:30:49.905Z,42.43
2023-03-29T16:32:52.943Z,43.08
2023-03-29T16:34:58.653Z,42.25
2023-03-29T16:37:03.090Z,44.62
2023-03-29T16:39:06.047Z,41.37
2023-03-29T16:41:12.666Z,42.46
2023-03-29T16:43:16.548Z,40.41
2023-03-29T16:45:20.388Z,43.69
2023-03-29T16:47:23.408Z,42.48
2023-03-29T16:49:26.432Z,43.37
2023-03-29T16:51:29.249Z,41.95
2023-03-29T16:53:34.719Z,40.90
2023-03-29T16:55:38.458Z,44.89
2023-03-29T16:57:42.453Z,43.27
2023-03-29T16:59:47.705Z,44.16
2023-03-29T17:01:50.890Z,41.23
2023-03-29T17:03:53.861Z,42.78
2023-03-29T17:05:58.087Z,42.75
2023-03-29T17:08:01.367Z,44.84
2023-03-29T17:10:07.110Z,45.03
2023-03-29T17:12:10.049Z,44.30
2023-03-29T17:14:13.050Z,45.01
2023-03-29T17:16:16.280Z,45.56
2023-03-29T17:18:19.552Z,46.92
2023-03-29T17:20:22.470Z,46.21
2023-03-29T17:22:26.070Z,43.98
2023-03-29T17:24:28.921Z,46.16
2023-03-29T17:26:33.356Z,46.52
2023-03-29T17:28:36.384Z,46.32
2023-03-29T17:30:40.216Z,46.68
2023-03-29T17:32:43.534Z,46.78
2023-03-29T17:34:46.680Z,46.39
2023-03-29T17:36:49.592Z,46.22
2023-03-29T17:38:52.563Z,46.49
2023-03-29T17:40:55.876Z,46.63
2023-03-29T17:43:00.327Z,47.39
2023-03-29T17:45:03.340Z,45.88
2023-03-29T17:47:06.438Z,46.63
2023-03-29T17:49:09.454Z,48.20
2023-03-29T17:51:12.427Z,46.71
2023-03-29T17:53:15.740Z,46.67
2023-03-29T17:55:19.027Z,48.77
2023-03-29T17:57:22.032Z,48.38
2023-03-29T17:59:26.663Z,49.23
2023-03-29T18:01:29.721Z,48.59
2023-03-29T18:03:33.000Z,48.99
2023-03-29T18:05:36.192Z,50.72
2023-03-29T18:07:38.997Z,49.08
2023-03-29T18:09:43.580Z,48.46
2023-03-29T18:11:46.360Z,50.33
2023-03-29T18:13:50.002Z,51.17
2023-03-29T18:15:56.919Z,52.41
2023-03-29T18:17:59.726Z,51.39
2023-03-29T18:20:02.947Z,52.26
2023-03-29T18:22:05.673Z,52.64
2023-03-29T18:24:08.460Z,52.97
2023-03-29T18:26:11.315Z,53.66
2023-03-29T18:28:14.252Z,54.04
2023-03-29T18:30:17.160Z,54.04
2023-03-29T18:32:21.922Z,52.69
2023-03-29T18:34:24.746Z,54.82
2023-03-29T18:36:29.354Z,52.97
2023-03-29T18:38:35.483Z,52.82
2023-03-29T18:40:39.390Z,55.36
2023-03-29T18:42:42.187Z,55.12
2023-03-29T18:44:45.123Z,55.14
2023-03-29T18:46:48.356Z,54.45
2023-03-29T18:48:53.688Z,55.15
2023-03-29T18:50:56.780Z,54.69
2023-03-29T18:52:59.680Z,54.67
2023-03-29T18:55:02.870Z,54.22
2023-03-29T18:57:05.968Z,54.61
2023-03-29T18:59:08.850Z,56.35
2023-03-29T19:01:13.092Z,55.38
2023-03-29T19:03:16.050Z,55.41
2023-03-29T19:05:20.549Z,55.11
2023-03-29T19:07:23.720Z,55.85
2023-03-29T19:09:27.548Z,55.43
2023-03-29T19:11:30.866Z,55.20
2023-03-29T19:13:34.572Z,54.97
2023-03-29T19:15:37.477Z,54.24
2023-03-29T19:17:40.463Z,54.85
2023-03-29T19:19:43.714Z,55.55
2023-03-29T19:21:48.270Z,56.41
2023-03-29T19:23:53.257Z,56.20
2023-03-29T19:25:57.694Z,56.28
2023-03-29T19:28:00.835Z,56.17
2023-03-29T19:30:04.203Z,57.99
2023-03-29T19:32:07.264Z,56.83
2023-03-29T19:34:11.468Z,56.57
2023-03-29T19:36:14.813Z,57.33
2023-03-29T19:38:19.639Z,57.31
2023-03-29T19:40:22.582Z,56.59
2023-03-29T19:42:25.576Z,56.60
2023-03-29T19:44:28.425Z,57.78
2023-03-29T19:46:31.780Z,58.44
2023-03-29T19:48:34.683Z,58.51
2023-03-29T19:50:40.702Z,58.62
2023-03-29T19:52:43.613Z,57.90
2023-03-29T19:54:48.036Z,58.05
2023-03-29T19:56:52.847Z,58.36
2023-03-29T19:58:56.084Z,59.49
2023-03-29T20:00:58.890Z,59.06
2023-03-29T20:03:02.607Z,58.69
2023-03-29T20:05:07.203Z,58.81
2023-03-29T20:07:10.515Z,58.20
2023-03-29T20:09:16.323Z,58.99
2023-03-29T20:11:24.205Z,58.89
2023-03-29T20:13:37.574Z,59.72
2023-03-29T20:15:45.233Z,59.34
2023-03-29T20:17:48.258Z,60.74
2023-03-29T20:19:51.196Z,60.45
2023-03-29T20:21:58.426Z,60.69
2023-03-29T20:24:01.356Z,59.91
2023-03-29T20:26:04.264Z,60.69
2023-03-29T20:28:08.832Z,60.31
2023-03-29T20:30:13.056Z,59.65
2023-03-29T20:32:16.077Z,61.04
2023-03-29T20:34:19.039Z,62.82
2023-03-29T20:36:23.370Z,62.34
2023-03-29T20:38:26.522Z,62.94
2023-03-29T20:40:30.366Z,61.88
2023-03-29T20:42:34.823Z,60.00
2023-03-29T20:44:39.468Z,61.30
2023-03-29T20:46:54.659Z,60.72
2023-03-29T20:48:57.747Z,61.59
2023-03-29T20:51:03.248Z,60.30
2023-03-29T20:53:07.606Z,60.01
2023-03-29T20:55:12.788Z,60.79
2023-03-29T20:57:17.838Z,60.55
2023-03-29T20:59:21.274Z,61.09
2023-03-29T21:01:26.091Z,61.59
2023-03-29T21:03:29.099Z,62.00
2023-03-29T21:05:33.740Z,60.01
2023-03-29T21:07:36.887Z,60.61
2023-03-29T21:09:40.183Z,60.75
2023-03-29T21:11:42.986Z,60.15
2023-03-29T21:13:45.986Z,61.55
2023-03-29T21:15:49.759Z,61.38
2023-03-29T21:17:54.439Z,61.58
2023-03-29T21:19:58.043Z,61.62
2023-03-29T21:22:01.500Z,61.78
2023-03-29T21:24:04.605Z,60.99
2023-03-29T21:26:10.407Z,61.80
2023-03-29T21:28:13.664Z,62.21
2023-03-29T21:30:16.781Z,61.40
2023-03-29T21:32:19.700Z,61.17
2023-03-29T21:34:24.334Z,62.12
2023-03-29T21:36:27.394Z,61.54
2023-03-29T21:38:30.423Z,62.06
2023-03-29T21:40:36.223Z,62.04
2023-03-29T21:42:39.473Z,62.84
2023-03-29T21:44:43.133Z,62.65
2023-03-29T21:46:46.467Z,63.01
2023-03-29T21:48:49.602Z,62.47
2023-03-29T21:50:54.004Z,62.72
2023-03-29T21:52:56.834Z,62.01
2023-03-29T21:55:00.005Z,62.59
2023-03-29T21:57:02.875Z,62.14
2023-03-29T21:59:06.044Z,62.59
2023-03-29T22:01:10.489Z,62.33
2023-03-29T22:03:13.773Z,62.60
2023-03-29T22:05:16.930Z,62.04
2023-03-29T22:07:22.982Z,61.76
2023-03-29T22:09:28.768Z,62.90
2023-03-29T22:11:32.319Z,63.70
2023-03-29T22:13:35.140Z,63.00
2023-03-29T22:15:39.205Z,62.69
2023-03-29T22:17:43.213Z,63.24
2023-03-29T22:19:47.879Z,63.06
2023-03-29T22:21:51.646Z,63.16
2023-03-29T22:23:57.606Z,62.95
2023-03-29T22:26:05.424Z,63.32
2023-03-29T22:28:08.421Z,63.71
2023-03-29T22:30:12.939Z,63.90
2023-03-29T22:32:15.999Z,64.11
2023-03-29T22:34:19.045Z,63.29
2023-03-29T22:36:23.702Z,63.80
2023-03-29T22:38:26.465Z,63.94
2023-03-29T22:40:33.523Z,63.29
2023-03-29T22:42:36.373Z,63.55
2023-03-29T22:44:39.243Z,63.60
2023-03-29T22:46:42.818Z,63.44
2023-03-29T22:48:46.545Z,62.85
2023-03-29T22:50:49.436Z,63.83
2023-03-29T22:52:52.406Z,63.66
2023-03-29T22:54:55.217Z,64.33
2023-03-29T22:56:59.674Z,63.33
2023-03-29T22:59:02.562Z,63.83
2023-03-29T23:01:06.942Z,63.37
2023-03-29T23:03:10.843Z,64.42
2023-03-29T23:05:14.078Z,64.68
2023-03-29T23:07:16.958Z,63.62
2023-03-29T23:09:19.942Z,63.61
2023-03-29T23:11:23.228Z,63.77
2023-03-29T23:13:29.591Z,65.04
2023-03-29T23:15:34.225Z,64.94
2023-03-29T23:17:37.500Z,64.27
2023-03-29T23:19:40.373Z,64.60
2023-03-29T23:21:43.293Z,64.94
2023-03-29T23:23:46.484Z,63.96
2023-03-29T23:25:51.175Z,64.47
2023-03-29T23:27:54.882Z,64.90
2023-03-29T23:29:59.913Z,64.69
2023-03-29T23:32:02.817Z,64.26
2023-03-29T23:34:05.793Z,64.18
2023-03-29T23:36:11.078Z,64.46
2023-03-29T23:38:14.116Z,64.13
2023-03-29T23:40:17.235Z,65.30
2023-03-29T23:42:21.511Z,64.83
2023-03-29T23:44:24.402Z,64.68
2023-03-29T23:46:28.898Z,64.74
2023-03-29T23:48:32.591Z,63.97
2023-03-29T23:50:35.587Z,64.68
2023-03-29T23:52:38.432Z,65.22
2023-03-29T23:54:41.533Z,65.05
2023-03-29T23:56:44.894Z,64.93
2023-03-29T23:58:48.013Z,64.84
